Time;durP1;ratioP1;P1;durP2;ratioP2;P2;SDS_P1;SDS_P2;PMS_P1;PMS_P2;Temp;Humidity;BMP_temperature;BMP_pressure;BME280_temperature;BME280_humidity;BME280_pressure;Samples;Min_cycle;Max_cycle;Signal;HPM_P1;HPM_P2
2023/09/13 00:01:40;;;;;;;3.30;1.67;;;;;;;;;;10533137;28;20036;-88
2023/09/13 00:06:44;;;;;;;3.50;1.85;;;;;;;;;;10521847;28;20060;-86
2023/09/13 00:12:00;;;;;;;3.53;2.00;;;;;;;;;;10502743;28;20058;-88
2023/09/13 00:17:09;;;;;;;3.53;2.13;;;;;;;;;;10516383;28;20059;-86
2023/09/13 00:22:15;;;;;;;4.32;1.80;;;;;;;;;;10508163;28;20394;-86
2023/09/13 00:27:20;;;;;;;2.53;1.55;;;;;;;;;;10491632;28;20055;-87
2023/09/13 00:32:40;;;;;;;4.05;1.75;;;;;;;;;;10527856;28;20105;-86
2023/09/13 00:37:51;;;;;;;3.53;1.63;;;;;;;;;;10527985;28;20071;-81
2023/09/13 00:48:23;;;;;;;;;;;;;;;;;;10502487;28;19959;-80
2023/09/13 00:53:34;;;;;;;3.30;1.67;;;;;;;;;;10505223;28;20018;-81
2023/09/13 00:58:48;;;;;;;3.35;1.20;;;;;;;;;;10518132;28;20707;-81
2023/09/13 01:03:55;;;;;;;3.80;1.85;;;;;;;;;;10505338;28;20036;-81
2023/09/13 01:09:07;;;;;;;1.48;1.08;;;;;;;;;;10522931;28;20085;-82
2023/09/13 01:14:21;;;;;;;2.42;1.40;;;;;;;;;;10510778;28;20032;-81
2023/09/13 01:19:52;;;;;;;5.22;1.90;;;;;;;;;;10522427;28;20131;-81
2023/09/13 01:25:14;;;;;;;4.93;2.05;;;;;;;;;;10495095;28;20082;-82
2023/09/13 01:30:39;;;;;;;4.55;1.88;;;;;;;;;;10523954;28;20043;-81
2023/09/13 01:35:42;;;;;;;;;;;;;;;;;;10506721;28;20127;-81
2023/09/13 01:41:02;;;;;;;6.28;1.92;;;;;;;;;;10507878;28;19960;-81
2023/09/13 01:46:12;;;;;;;4.82;2.40;;;;;;;;;;10496775;28;20064;-81
2023/09/13 01:51:16;;;;;;;5.15;2.30;;;;;;;;;;10518285;28;20097;-83
2023/09/13 01:56:24;;;;;;;6.25;2.83;;;;;;;;;;10498213;28;20910;-82
2023/09/13 02:01:42;;;;;;;5.00;2.35;;;;;;;;;;10520875;28;20040;-81
2023/09/13 02:06:48;;;;;;;3.97;2.10;;;;;;;;;;10484311;28;20473;-82
2023/09/13 02:11:53;;;;;;;4.07;1.88;;;;;;;;;;10502247;28;20042;-82
2023/09/13 02:17:02;;;;;;;5.82;2.33;;;;;;;;;;10519996;28;20045;-82
2023/09/13 02:22:06;;;;;;;6.22;2.40;;;;;;;;;;10515849;28;20127;-80
2023/09/13 02:27:09;;;;;;;;;;;;;;;;;;10511288;28;20041;-81
2023/09/13 02:32:13;;;;;;;;;;;;;;;;;;10513874;28;19946;-80
2023/09/13 02:37:19;;;;;;;;;;;;;;;;;;10515303;28;19928;-81
2023/09/13 02:42:32;;;;;;;2.67;1.30;;;;;;;;;;10517837;28;20407;-81
2023/09/13 02:47:40;;;;;;;3.38;1.80;;;;;;;;;;10518601;28;20112;-82
2023/09/13 02:52:45;;;;;;;5.00;1.77;;;;;;;;;;10484559;28;20464;-81
2023/09/13 02:57:55;;;;;;;5.30;2.40;;;;;;;;;;10503251;28;20090;-81
2023/09/13 03:03:01;;;;;;;4.78;1.95;;;;;;;;;;10499728;28;20039;-81
2023/09/13 03:08:13;;;;;;;4.10;2.35;;;;;;;;;;10514939;28;20619;-81
2023/09/13 03:13:27;;;;;;;6.55;2.17;;;;;;;;;;10503988;28;20028;-82
2023/09/13 03:18:31;;;;;;;4.78;2.30;;;;;;;;;;10514232;28;20113;-81
2023/09/13 03:23:36;;;;;;;4.93;2.53;;;;;;;;;;10518618;28;20058;-81
2023/09/13 03:28:46;;;;;;;4.63;2.47;;;;;;;;;;10497141;28;20052;-81
2023/09/13 03:33:53;;;;;;;5.47;2.30;;;;;;;;;;10514325;28;20154;-81
2023/09/13 03:38:58;;;;;;;5.22;2.55;;;;;;;;;;10513069;28;20604;-82
2023/09/13 03:44:04;;;;;;;3.15;1.92;;;;;;;;;;10521235;28;20505;-82
2023/09/13 03:49:10;;;;;;;6.63;2.92;;;;;;;;;;10510089;28;20105;-81
2023/09/13 03:54:15;;;;;;;4.85;2.63;;;;;;;;;;10499239;28;20050;-81
2023/09/13 03:59:24;;;;;;;5.63;2.88;;;;;;;;;;10515274;28;20040;-81
2023/09/13 04:04:36;;;;;;;6.95;3.25;;;;;;;;;;10508300;28;20474;-81
2023/09/13 04:09:52;;;;;;;5.03;2.47;;;;;;;;;;10513433;28;20460;-81
2023/09/13 04:15:04;;;;;;;6.35;2.80;;;;;;;;;;10496956;28;20036;-81
2023/09/13 04:20:19;;;;;;;7.00;3.42;;;;;;;;;;10501019;28;20126;-81
2023/09/13 04:25:29;;;;;;;6.07;2.58;;;;;;;;;;10494804;28;20062;-82
2023/09/13 04:30:39;;;;;;;7.03;2.33;;;;;;;;;;10511028;28;20252;-82
2023/09/13 04:35:43;;;;;;;5.80;3.00;;;;;;;;;;10501088;28;20139;-82
2023/09/13 04:40:46;;;;;;;6.95;3.47;;;;;;;;;;10517988;28;20044;-81
2023/09/13 04:45:54;;;;;;;8.95;3.60;;;;;;;;;;10515478;28;20044;-81
2023/09/13 04:51:04;;;;;;;8.00;3.90;;;;;;;;;;10485405;28;20062;-81
2023/09/13 04:56:07;;;;;;;7.28;3.38;;;;;;;;;;10499205;28;20047;-80
2023/09/13 05:01:20;;;;;;;7.40;4.53;;;;;;;;;;10487316;28;20044;-82
2023/09/13 05:06:27;;;;;;;8.18;3.60;;;;;;;;;;10505804;28;20032;-82
2023/09/13 05:11:33;;;;;;;11.60;4.03;;;;;;;;;;10526850;28;20044;-82
2023/09/13 05:16:53;;;;;;;6.72;3.17;;;;;;;;;;10511274;28;20449;-82
2023/09/13 05:21:57;;;;;;;7.38;3.95;;;;;;;;;;10503707;28;20079;-82
2023/09/13 05:27:00;;;;;;;7.55;3.22;;;;;;;;;;10503035;28;20044;-81
2023/09/13 05:32:33;;;;;;;5.63;3.05;;;;;;;;;;10517444;28;20110;-81
2023/09/13 05:37:44;;;;;;;4.05;2.55;;;;;;;;;;10494321;28;20051;-80
2023/09/13 05:42:50;;;;;;;7.50;3.45;;;;;;;;;;10489326;28;20040;-80
2023/09/13 05:47:58;;;;;;;4.45;2.55;;;;;;;;;;10525596;28;20044;-78
2023/09/13 05:53:03;;;;;;;10.00;3.92;;;;;;;;;;10525683;28;20038;-77
2023/09/13 05:58:10;;;;;;;6.68;3.72;;;;;;;;;;10493094;28;20056;-77
2023/09/13 06:03:20;;;;;;;7.85;4.00;;;;;;;;;;10500593;28;20040;-78
2023/09/13 06:08:37;;;;;;;10.02;5.10;;;;;;;;;;10521228;28;20093;-79
2023/09/13 06:13:44;;;;;;;11.20;4.03;;;;;;;;;;10516361;28;20036;-78
2023/09/13 06:18:58;;;;;;;10.55;5.43;;;;;;;;;;10523482;28;20042;-78
2023/09/13 06:24:08;;;;;;;7.78;4.65;;;;;;;;;;10489102;28;20036;-80
2023/09/13 06:29:12;;;;;;;11.68;5.20;;;;;;;;;;10505140;28;20119;-77
2023/09/13 06:34:19;;;;;;;12.23;5.40;;;;;;;;;;10522675;28;20512;-80
2023/09/13 06:39:36;;;;;;;4.38;2.45;;;;;;;;;;10501980;28;20135;-76
2023/09/13 06:44:41;;;;;;;14.45;6.10;;;;;;;;;;10504659;28;20040;-77
2023/09/13 06:49:50;;;;;;;11.27;4.43;;;;;;;;;;10523026;28;20060;-76
2023/09/13 06:55:00;;;;;;;6.55;3.45;;;;;;;;;;10522853;28;20044;-77
2023/09/13 07:00:09;;;;;;;10.73;4.45;;;;;;;;;;10524959;28;20040;-79
2023/09/13 07:05:20;;;;;;;6.40;3.60;;;;;;;;;;10520541;28;20457;-76
2023/09/13 07:10:32;;;;;;;8.13;3.72;;;;;;;;;;10525350;28;20066;-77
2023/09/13 07:15:38;;;;;;;10.48;3.83;;;;;;;;;;10501877;28;20039;-76
2023/09/13 07:21:09;;;;;;;8.50;3.85;;;;;;;;;;10500577;28;20084;-76
2023/09/13 07:26:21;;;;;;;7.47;3.67;;;;;;;;;;10516977;28;20035;-75
2023/09/13 07:31:25;;;;;;;8.48;4.70;;;;;;;;;;10504411;28;20043;-76
2023/09/13 07:36:32;;;;;;;8.57;3.78;;;;;;;;;;10518028;28;20032;-76
2023/09/13 07:41:39;;;;;;;10.07;3.90;;;;;;;;;;10519862;28;20039;-75
2023/09/13 07:46:45;;;;;;;12.60;4.80;;;;;;;;;;10500062;28;20059;-75
2023/09/13 07:51:52;;;;;;;11.15;5.03;;;;;;;;;;10494416;28;20040;-78
2023/09/13 07:56:59;;;;;;;6.53;3.65;;;;;;;;;;10517396;28;20288;-76
2023/09/13 08:02:05;;;;;;;6.68;2.58;;;;;;;;;;10506374;28;20056;-78
2023/09/13 08:07:14;;;;;;;10.38;3.80;;;;;;;;;;10496106;28;20051;-76
2023/09/13 08:17:40;;;;;;;5.88;3.50;;;;;;;;;;10496797;28;20570;-77
2023/09/13 08:22:49;;;;;;;5.95;3.22;;;;;;;;;;10516775;28;20050;-76
2023/09/13 08:33:22;;;;;;;7.90;3.55;;;;;;;;;;10511513;28;20208;-84
2023/09/13 08:38:29;;;;;;;8.30;3.50;;;;;;;;;;10509520;28;20044;-85
2023/09/13 08:43:39;;;;;;;8.00;3.40;;;;;;;;;;10521854;28;20043;-83
2023/09/13 08:48:47;;;;;;;7.75;3.47;;;;;;;;;;10528859;28;20036;-82
2023/09/13 08:53:54;;;;;;;7.07;3.35;;;;;;;;;;10510009;28;20232;-83
2023/09/13 08:59:03;;;;;;;7.30;3.60;;;;;;;;;;10500389;28;20126;-80
2023/09/13 09:04:14;;;;;;;7.63;4.00;;;;;;;;;;10523174;28;20470;-79
2023/09/13 09:09:23;;;;;;;6.30;3.30;;;;;;;;;;10527462;28;20051;-78
2023/09/13 09:14:32;;;;;;;7.20;3.75;;;;;;;;;;10525590;28;20059;-79
2023/09/13 09:19:37;;;;;;;6.40;3.42;;;;;;;;;;10502847;28;20035;-80
2023/09/13 09:24:40;;;;;;;5.85;3.22;;;;;;;;;;10520173;28;20058;-80
2023/09/13 09:29:46;;;;;;;8.07;3.83;;;;;;;;;;10503412;28;20055;-78
2023/09/13 09:34:50;;;;;;;6.25;3.60;;;;;;;;;;10523558;28;20119;-79
2023/09/13 09:40:00;;;;;;;5.85;3.70;;;;;;;;;;10519925;28;20059;-78
2023/09/13 09:45:15;;;;;;;6.75;3.85;;;;;;;;;;10487073;28;20056;-77
2023/09/13 09:50:29;;;;;;;7.03;4.53;;;;;;;;;;10499049;28;20130;-80
2023/09/13 09:55:34;;;;;;;6.70;4.53;;;;;;;;;;10508055;28;20055;-79
2023/09/13 10:00:51;;;;;;;6.80;5.00;;;;;;;;;;10527272;28;20032;-79
2023/09/13 10:05:56;;;;;;;6.85;4.68;;;;;;;;;;10509809;28;20093;-80
2023/09/13 10:11:01;;;;;;;6.55;4.07;;;;;;;;;;10494866;28;20156;-80
2023/09/13 10:16:17;;;;;;;7.40;4.35;;;;;;;;;;10521956;28;20071;-79
2023/09/13 10:21:25;;;;;;;8.70;4.78;;;;;;;;;;10509751;28;20048;-79
2023/09/13 10:26:33;;;;;;;8.20;4.90;;;;;;;;;;10529596;28;20051;-79
2023/09/13 10:31:45;;;;;;;8.65;4.68;;;;;;;;;;10514300;28;20524;-80
2023/09/13 10:36:55;;;;;;;9.27;4.57;;;;;;;;;;10503788;28;20043;-79
2023/09/13 10:42:03;;;;;;;7.72;4.72;;;;;;;;;;10531889;28;20071;-79
2023/09/13 10:47:08;;;;;;;8.27;4.55;;;;;;;;;;10485573;28;20047;-80
2023/09/13 10:52:13;;;;;;;9.00;4.45;;;;;;;;;;10520418;28;20047;-80
2023/09/13 10:57:20;;;;;;;7.70;4.18;;;;;;;;;;10524815;28;20101;-79
2023/09/13 11:02:29;;;;;;;6.65;4.28;;;;;;;;;;10501258;28;20055;-79
2023/09/13 11:07:35;;;;;;;9.40;5.05;;;;;;;;;;10523179;28;20048;-79
2023/09/13 11:12:39;;;;;;;11.02;4.93;;;;;;;;;;10518196;28;20072;-79
2023/09/13 11:17:44;;;;;;;9.70;5.28;;;;;;;;;;10524039;28;20032;-80
2023/09/13 11:23:00;;;;;;;9.25;5.70;;;;;;;;;;10519381;28;20399;-79
2023/09/13 11:28:08;;;;;;;11.00;6.05;;;;;;;;;;10521950;28;20070;-79
2023/09/13 11:33:13;;;;;;;11.77;6.45;;;;;;;;;;10520397;28;20063;-79
2023/09/13 11:38:45;;;;;;;14.73;6.45;;;;;;;;;;10549829;27;20150;-78
2023/09/13 11:43:50;;;;;;;15.23;7.38;;;;;;;;;;10518803;28;20098;-77
2023/09/13 11:49:06;;;;;;;18.65;8.13;;;;;;;;;;10509234;28;20058;-77
2023/09/13 11:54:16;;;;;;;14.63;7.75;;;;;;;;;;10519117;28;20098;-78
2023/09/13 11:59:25;;;;;;;18.90;8.20;;;;;;;;;;10509283;28;20509;-78
2023/09/13 12:04:28;;;;;;;17.73;8.35;;;;;;;;;;10506681;28;21569;-75
2023/09/13 12:09:35;;;;;;;18.13;8.07;;;;;;;;;;10509392;28;20162;-75
2023/09/13 12:14:41;;;;;;;14.98;7.47;;;;;;;;;;10514126;28;20051;-77
2023/09/13 12:19:47;;;;;;;13.48;7.68;;;;;;;;;;10509009;28;20045;-76
2023/09/13 12:24:52;;;;;;;17.08;8.23;;;;;;;;;;10504986;28;20537;-75
2023/09/13 12:29:55;;;;;;;14.02;7.72;;;;;;;;;;10507715;28;20068;-76
2023/09/13 12:34:58;;;;;;;20.77;8.18;;;;;;;;;;10506299;28;20465;-77
2023/09/13 12:40:13;;;;;;;15.75;8.55;;;;;;;;;;10509893;28;20129;-84
2023/09/13 12:45:16;;;;;;;20.30;9.60;;;;;;;;;;10512385;28;20036;-83
2023/09/13 12:50:20;;;;;;;21.17;9.70;;;;;;;;;;10493329;28;20044;-81
2023/09/13 12:55:37;;;;;;;16.67;8.25;;;;;;;;;;10493815;28;20427;-83
2023/09/13 13:00:50;;;;;;;16.27;8.48;;;;;;;;;;10486471;28;20069;-80
2023/09/13 13:05:54;;;;;;;16.75;9.20;;;;;;;;;;10491411;28;20033;-79
2023/09/13 13:11:03;;;;;;;19.10;10.38;;;;;;;;;;10495313;28;20075;-80
2023/09/13 13:16:13;;;;;;;19.10;10.45;;;;;;;;;;10481063;28;20041;-79
2023/09/13 13:21:16;;;;;;;20.30;9.18;;;;;;;;;;10486552;28;20114;-80
2023/09/13 13:26:40;;;;;;;19.70;9.15;;;;;;;;;;10481224;28;20048;-79
2023/09/13 13:31:43;;;;;;;15.55;9.20;;;;;;;;;;10487909;28;20520;-80
2023/09/13 13:36:46;;;;;;;20.77;9.18;;;;;;;;;;10480204;28;20478;-79
2023/09/13 13:41:50;;;;;;;16.33;8.85;;;;;;;;;;10486419;28;20391;-80
2023/09/13 13:46:52;;;;;;;18.50;9.15;;;;;;;;;;10488096;28;20067;-80
2023/09/13 13:51:55;;;;;;;23.65;10.70;;;;;;;;;;10489665;28;20094;-80
2023/09/13 13:57:00;;;;;;;19.73;10.35;;;;;;;;;;10478565;28;20040;-80
2023/09/13 14:02:03;;;;;;;18.50;9.80;;;;;;;;;;10488422;28;20117;-78
2023/09/13 14:07:06;;;;;;;16.17;8.23;;;;;;;;;;10484091;28;20060;-83
2023/09/13 14:12:10;;;;;;;14.02;6.22;;;;;;;;;;10493967;28;20040;-83
2023/09/13 14:17:15;;;;;;;11.80;6.95;;;;;;;;;;10493242;28;20183;-83
2023/09/13 14:22:19;;;;;;;16.63;7.53;;;;;;;;;;10483451;28;20036;-83
2023/09/13 14:27:24;;;;;;;13.97;7.60;;;;;;;;;;10492523;28;20060;-83
2023/09/13 14:32:27;;;;;;;17.38;7.05;;;;;;;;;;10486977;28;20315;-82
2023/09/13 14:37:31;;;;;;;12.98;6.65;;;;;;;;;;10491378;28;20033;-82
2023/09/13 14:42:35;;;;;;;9.05;4.70;;;;;;;;;;10487543;28;20063;-82
2023/09/13 14:47:39;;;;;;;6.03;2.75;;;;;;;;;;10485984;28;20036;-90
2023/09/13 14:52:41;;;;;;;10.32;4.70;;;;;;;;;;10489820;28;20109;-83
2023/09/13 14:57:45;;;;;;;13.60;6.55;;;;;;;;;;10482418;28;20067;-84
2023/09/13 15:02:48;;;;;;;11.52;5.90;;;;;;;;;;10478783;28;20048;-83
2023/09/13 15:07:51;;;;;;;13.90;7.10;;;;;;;;;;10481137;28;20048;-83
2023/09/13 15:12:56;;;;;;;13.63;7.40;;;;;;;;;;10484364;28;20216;-82
2023/09/13 15:17:59;;;;;;;15.20;6.07;;;;;;;;;;10479243;28;20434;-82
2023/09/13 15:23:01;;;;;;;12.60;6.00;;;;;;;;;;10478145;28;20488;-82
2023/09/13 15:28:05;;;;;;;15.90;6.50;;;;;;;;;;10480598;28;20502;-83
2023/09/13 15:33:08;;;;;;;13.90;5.72;;;;;;;;;;10482402;28;20102;-82
2023/09/13 15:38:11;;;;;;;13.17;5.97;;;;;;;;;;10483371;28;20078;-79
2023/09/13 15:43:16;;;;;;;12.68;6.13;;;;;;;;;;10485055;28;20298;-81
2023/09/13 15:48:19;;;;;;;12.90;6.80;;;;;;;;;;10474444;28;20043;-80
2023/09/13 15:53:40;;;;;;;11.65;5.57;;;;;;;;;;10469544;28;20451;-80
2023/09/13 15:58:44;;;;;;;14.07;6.47;;;;;;;;;;10478120;28;20730;-80
2023/09/13 16:03:47;;;;;;;15.35;7.07;;;;;;;;;;10474179;28;20040;-79
2023/09/13 16:08:50;;;;;;;14.73;6.70;;;;;;;;;;10470693;28;20044;-80
2023/09/13 16:13:54;;;;;;;14.30;6.50;;;;;;;;;;10469775;28;20116;-79
2023/09/13 16:18:57;;;;;;;12.93;6.72;;;;;;;;;;10478097;28;20132;-80
2023/09/13 16:23:59;;;;;;;16.73;7.60;;;;;;;;;;10475986;28;20052;-80
2023/09/13 16:29:03;;;;;;;13.77;6.68;;;;;;;;;;10487378;28;20060;-79
2023/09/13 16:34:06;;;;;;;18.27;7.82;;;;;;;;;;10491090;28;20127;-80
2023/09/13 16:39:08;;;;;;;10.50;5.20;;;;;;;;;;10486930;28;20064;-81
2023/09/13 16:44:12;;;;;;;17.67;7.30;;;;;;;;;;10481544;28;20079;-80
2023/09/13 16:49:15;;;;;;;12.98;5.53;;;;;;;;;;10483564;28;20037;-82
2023/09/13 16:54:18;;;;;;;12.25;5.90;;;;;;;;;;10482322;28;20084;-79
2023/09/13 16:59:22;;;;;;;11.57;4.63;;;;;;;;;;10489782;28;20413;-80
2023/09/13 17:04:24;;;;;;;10.05;4.82;;;;;;;;;;10483301;28;20124;-81
2023/09/13 17:09:27;;;;;;;11.83;5.47;;;;;;;;;;10489901;28;20051;-81
2023/09/13 17:14:32;;;;;;;9.60;4.60;;;;;;;;;;10490084;28;20037;-80
2023/09/13 17:19:35;;;;;;;17.10;5.65;;;;;;;;;;10493415;28;20498;-80
2023/09/13 17:24:37;;;;;;;10.23;4.82;;;;;;;;;;10485047;28;20059;-80
2023/09/13 17:29:44;;;;;;;3.33;2.20;;;;;;;;;;10486760;28;20041;-80
2023/09/13 17:34:47;;;;;;;12.68;5.80;;;;;;;;;;10493720;28;20355;-80
2023/09/13 17:39:50;;;;;;;11.83;5.00;;;;;;;;;;10487796;28;20065;-81
2023/09/13 17:44:52;;;;;;;;;;;;;;;;;;10487679;28;20441;-81
2023/09/13 17:49:57;;;;;;;9.77;4.38;;;;;;;;;;10490941;28;20385;-81
2023/09/13 17:55:01;;;;;;;6.20;3.13;;;;;;;;;;10488372;28;20086;-80
2023/09/13 18:00:04;;;;;;;6.80;3.30;;;;;;;;;;10493349;28;20036;-80
2023/09/13 18:05:08;;;;;;;11.93;5.90;;;;;;;;;;10495465;28;20486;-81
2023/09/13 18:10:12;;;;;;;8.07;4.40;;;;;;;;;;10491824;28;20115;-81
2023/09/13 18:15:15;;;;;;;5.75;3.35;;;;;;;;;;10488850;28;20048;-81
2023/09/13 18:20:19;;;;;;;10.85;5.60;;;;;;;;;;10488375;28;20115;-81
2023/09/13 18:25:21;;;;;;;12.88;6.90;;;;;;;;;;10488547;28;20146;-80
2023/09/13 18:30:24;;;;;;;8.95;4.97;;;;;;;;;;10485691;28;20064;-80
2023/09/13 18:35:29;;;;;;;4.40;2.88;;;;;;;;;;10476759;28;20406;-80
2023/09/13 18:40:31;;;;;;;11.77;5.50;;;;;;;;;;10472614;28;20122;-80
2023/09/13 18:45:36;;;;;;;11.37;5.23;;;;;;;;;;10479863;28;20059;-81
2023/09/13 18:50:41;;;;;;;10.38;4.70;;;;;;;;;;10476868;28;20040;-80
2023/09/13 18:55:44;;;;;;;11.60;5.25;;;;;;;;;;10477370;28;20048;-80
2023/09/13 19:00:47;;;;;;;9.73;5.30;;;;;;;;;;10483281;28;20039;-80
2023/09/13 19:05:59;;;;;;;11.60;5.60;;;;;;;;;;10477924;28;20032;-79
2023/09/13 19:11:05;;;;;;;13.30;5.45;;;;;;;;;;10475071;28;20044;-80
2023/09/13 19:16:08;;;;;;;14.40;5.40;;;;;;;;;;10481052;28;20148;-80
2023/09/13 19:21:14;;;;;;;10.27;4.80;;;;;;;;;;10480300;28;20045;-80
2023/09/13 19:26:17;;;;;;;8.70;4.30;;;;;;;;;;10478942;28;20088;-81
2023/09/13 19:31:21;;;;;;;10.47;5.33;;;;;;;;;;10475973;28;20453;-81
2023/09/13 19:36:25;;;;;;;10.90;5.18;;;;;;;;;;10477297;28;20048;-80
2023/09/13 19:41:27;;;;;;;12.00;3.97;;;;;;;;;;10476643;28;20079;-81
2023/09/13 19:46:30;;;;;;;12.33;5.20;;;;;;;;;;10484110;28;20041;-79
2023/09/13 19:51:34;;;;;;;11.32;4.63;;;;;;;;;;10491500;28;20159;-81
2023/09/13 19:56:37;;;;;;;11.23;5.75;;;;;;;;;;10481559;28;20036;-81
2023/09/13 20:01:41;;;;;;;10.73;5.57;;;;;;;;;;10491281;28;20132;-81
2023/09/13 20:06:45;;;;;;;8.07;3.90;;;;;;;;;;10490706;28;20515;-81
2023/09/13 20:11:59;;;;;;;5.45;3.10;;;;;;;;;;10490282;28;20052;-80
2023/09/13 20:17:03;;;;;;;8.30;4.07;;;;;;;;;;10484893;28;20125;-81
2023/09/13 20:22:07;;;;;;;9.80;3.58;;;;;;;;;;10492012;28;20032;-81
2023/09/13 20:27:10;;;;;;;11.23;5.45;;;;;;;;;;10487174;28;20068;-80
2023/09/13 20:32:15;;;;;;;10.77;4.67;;;;;;;;;;10478316;28;20052;-81
2023/09/13 20:37:18;;;;;;;12.98;5.75;;;;;;;;;;10487250;28;20512;-80
2023/09/13 20:42:21;;;;;;;11.43;4.85;;;;;;;;;;10481436;28;20170;-76
2023/09/13 20:47:24;;;;;;;9.33;5.00;;;;;;;;;;10489932;28;20374;-77
2023/09/13 20:52:28;;;;;;;9.17;5.10;;;;;;;;;;10491769;28;20152;-75
2023/09/13 20:57:30;;;;;;;10.05;4.50;;;;;;;;;;10481241;28;20043;-76
2023/09/13 21:02:33;;;;;;;11.20;5.10;;;;;;;;;;10481340;28;20041;-77
2023/09/13 21:07:37;;;;;;;11.23;5.40;;;;;;;;;;10486418;28;20454;-76
2023/09/13 21:12:40;;;;;;;8.05;4.28;;;;;;;;;;10487012;28;20462;-74
2023/09/13 21:17:42;;;;;;;9.53;4.70;;;;;;;;;;10479872;28;20055;-78
2023/09/13 21:22:46;;;;;;;11.80;5.27;;;;;;;;;;10479826;28;20044;-78
2023/09/13 21:27:49;;;;;;;8.75;4.55;;;;;;;;;;10485586;28;20128;-78
2023/09/13 21:32:51;;;;;;;8.07;4.47;;;;;;;;;;10482225;28;20048;-78
2023/09/13 21:37:56;;;;;;;8.70;4.63;;;;;;;;;;10485079;28;20044;-80
2023/09/13 21:42:58;;;;;;;8.55;4.45;;;;;;;;;;10483954;28;20462;-79
2023/09/13 21:48:01;;;;;;;8.40;4.27;;;;;;;;;;10484497;28;20429;-80
2023/09/13 21:53:05;;;;;;;9.43;4.53;;;;;;;;;;10484023;28;20064;-80
2023/09/13 21:58:11;;;;;;;12.50;4.90;;;;;;;;;;10487219;28;20492;-80
2023/09/13 22:03:14;;;;;;;10.48;4.80;;;;;;;;;;10481730;28;20157;-81
2023/09/13 22:08:20;;;;;;;9.27;4.65;;;;;;;;;;10490067;28;20133;-80
2023/09/13 22:13:23;;;;;;;8.25;4.30;;;;;;;;;;10484607;28;20102;-80
2023/09/13 22:18:26;;;;;;;9.43;4.90;;;;;;;;;;10485360;28;20132;-79
2023/09/13 22:23:31;;;;;;;10.17;4.87;;;;;;;;;;10480527;28;20514;-81
2023/09/13 22:28:34;;;;;;;9.20;3.67;;;;;;;;;;10477127;28;20380;-82
2023/09/13 22:33:36;;;;;;;8.57;4.57;;;;;;;;;;10478593;28;20181;-81
2023/09/13 22:38:42;;;;;;;8.73;3.93;;;;;;;;;;10474725;28;20620;-80
2023/09/13 22:43:56;;;;;;;8.90;4.43;;;;;;;;;;10479550;28;20488;-81
2023/09/13 22:48:58;;;;;;;6.97;3.33;;;;;;;;;;10482400;28;20483;-80
2023/09/13 22:54:03;;;;;;;9.33;3.87;;;;;;;;;;10480627;28;20456;-81
2023/09/13 22:59:05;;;;;;;9.75;4.35;;;;;;;;;;10481449;28;20048;-81
2023/09/13 23:04:08;;;;;;;7.40;4.43;;;;;;;;;;10473217;28;20047;-80
2023/09/13 23:09:16;;;;;;;7.43;4.15;;;;;;;;;;10477622;28;20040;-80
2023/09/13 23:14:19;;;;;;;9.40;4.43;;;;;;;;;;10477625;28;20119;-80
2023/09/13 23:19:22;;;;;;;9.25;4.32;;;;;;;;;;10471183;28;20063;-79
2023/09/13 23:24:26;;;;;;;8.95;4.90;;;;;;;;;;10474730;28;20037;-81
2023/09/13 23:29:29;;;;;;;9.43;4.60;;;;;;;;;;10477247;28;20048;-81
2023/09/13 23:34:32;;;;;;;11.07;4.60;;;;;;;;;;10474595;28;20119;-79
2023/09/13 23:39:36;;;;;;;9.30;4.60;;;;;;;;;;10480211;28;20078;-78
2023/09/13 23:44:38;;;;;;;11.60;4.82;;;;;;;;;;10484554;28;20048;-81
2023/09/13 23:49:41;;;;;;;10.80;5.88;;;;;;;;;;10471785;28;20072;-81
2023/09/13 23:54:45;;;;;;;9.17;4.83;;;;;;;;;;10473533;28;20521;-79
2023/09/13 23:59:47;;;;;;;9.48;4.85;;;;;;;;;;10474638;28;20032;-80
